createdAt,value
2023-03-29T00:00:08.967Z,19.05
2023-03-29T00:02:39.319Z,19.05
2023-03-29T00:05:07.485Z,19.04
2023-03-29T00:07:35.310Z,19.03
2023-03-29T00:10:04.651Z,19.03
2023-03-29T00:12:32.245Z,19.03
2023-03-29T00:14:59.633Z,19.03
2023-03-29T00:17:26.985Z,19.02
2023-03-29T00:19:54.373Z,19.03
2023-03-29T00:22:22.027Z,19.02
2023-03-29T00:24:49.412Z,19.01
2023-03-29T00:27:16.842Z,19.01
2023-03-29T00:29:44.203Z,19.01
2023-03-29T00:32:11.788Z,19.00
2023-03-29T00:34:42.680Z,19.01
2023-03-29T00:37:10.160Z,19.00
2023-03-29T00:39:37.622Z,19.00
2023-03-29T00:42:05.004Z,19.00
2023-03-29T00:44:54.006Z,18.99
2023-03-29T00:47:29.198Z,18.99
2023-03-29T00:50:01.771Z,18.99
2023-03-29T00:52:32.134Z,18.98
2023-03-29T00:55:06.117Z,18.99
2023-03-29T00:57:34.230Z,18.98
2023-03-29T01:00:05.524Z,18.97
2023-03-29T01:02:35.043Z,18.98
2023-03-29T01:05:05.716Z,18.98
2023-03-29T01:07:47.984Z,18.99
2023-03-29T01:10:23.522Z,18.97
2023-03-29T01:12:56.343Z,18.97
2023-03-29T01:15:28.739Z,18.96
2023-03-29T01:17:58.478Z,18.97
2023-03-29T01:20:49.064Z,18.97
2023-03-29T01:23:16.952Z,18.96
2023-03-29T01:26:11.453Z,18.96
2023-03-29T01:28:51.760Z,18.96
2023-03-29T01:31:27.180Z,18.96
2023-03-29T01:34:16.752Z,18.96
2023-03-29T01:36:54.783Z,18.95
2023-03-29T01:39:22.186Z,18.96
2023-03-29T01:42:24.072Z,18.95
2023-03-29T01:44:57.446Z,18.95
2023-03-29T01:47:43.311Z,18.94
2023-03-29T01:50:35.555Z,18.95
2023-03-29T01:53:09.348Z,18.95
2023-03-29T01:55:40.615Z,18.95
2023-03-29T01:58:11.853Z,18.95
2023-03-29T02:00:42.149Z,18.95
2023-03-29T02:03:10.637Z,18.96
2023-03-29T02:05:39.518Z,18.94
2023-03-29T02:08:09.924Z,18.95
2023-03-29T02:10:38.037Z,18.95
2023-03-29T02:13:06.258Z,18.95
2023-03-29T02:15:33.926Z,18.95
2023-03-29T02:18:04.096Z,18.94
2023-03-29T02:20:36.948Z,18.93
2023-03-29T02:23:23.488Z,18.94
2023-03-29T02:25:53.632Z,18.92
2023-03-29T02:28:24.189Z,18.93
2023-03-29T02:31:30.718Z,18.93
2023-03-29T02:34:28.233Z,18.92
2023-03-29T02:37:03.924Z,18.92
2023-03-29T02:39:34.727Z,18.92
2023-03-29T02:42:04.000Z,18.92
2023-03-29T02:44:33.412Z,18.91
2023-03-29T02:47:08.931Z,18.91
2023-03-29T02:49:36.272Z,18.91
2023-03-29T02:52:11.656Z,18.92
2023-03-29T02:54:43.298Z,18.91
2023-03-29T02:57:11.501Z,18.90
2023-03-29T02:59:40.899Z,18.91
2023-03-29T03:02:08.267Z,18.90
2023-03-29T03:04:35.852Z,18.91
2023-03-29T03:07:06.941Z,18.88
2023-03-29T03:09:34.383Z,18.89
2023-03-29T03:12:01.900Z,18.89
2023-03-29T03:14:29.735Z,18.88
2023-03-29T03:17:00.297Z,18.89
2023-03-29T03:19:29.634Z,18.88
2023-03-29T03:21:57.027Z,18.88
2023-03-29T03:24:24.449Z,18.88
2023-03-29T03:26:51.923Z,18.87
2023-03-29T03:29:20.110Z,18.87
2023-03-29T03:32:08.232Z,18.88
2023-03-29T03:34:54.097Z,18.87
2023-03-29T03:37:24.907Z,18.88
2023-03-29T03:39:52.208Z,18.86
2023-03-29T03:42:19.896Z,18.86
2023-03-29T03:44:47.735Z,18.86
2023-03-29T03:47:35.518Z,18.86
2023-03-29T03:50:17.777Z,18.85
2023-03-29T03:52:45.194Z,18.85
2023-03-29T03:55:13.087Z,18.85
2023-03-29T03:57:52.631Z,18.86
2023-03-29T04:00:21.457Z,18.85
2023-03-29T04:03:07.060Z,18.85
2023-03-29T04:05:40.220Z,18.84
2023-03-29T04:08:08.539Z,18.84
2023-03-29T04:10:58.957Z,18.84
2023-03-29T04:13:34.369Z,18.84
2023-03-29T04:16:28.433Z,18.84
2023-03-29T04:19:00.397Z,18.84
2023-03-29T04:21:29.149Z,18.84
2023-03-29T04:23:56.424Z,18.85
2023-03-29T04:26:23.938Z,18.84
2023-03-29T04:28:57.466Z,18.85
2023-03-29T04:31:34.717Z,18.84
2023-03-29T04:34:24.979Z,18.83
2023-03-29T04:36:54.490Z,18.84
2023-03-29T04:39:32.073Z,18.84
2023-03-29T04:42:00.212Z,18.83
2023-03-29T04:44:29.896Z,18.83
2023-03-29T04:47:00.490Z,18.83
2023-03-29T04:49:37.339Z,18.83
2023-03-29T04:52:09.691Z,18.83
2023-03-29T04:54:37.944Z,18.83
2023-03-29T04:57:25.423Z,18.82
2023-03-29T05:00:00.096Z,18.82
2023-03-29T05:02:47.859Z,18.82
2023-03-29T05:05:16.152Z,18.82
2023-03-29T05:07:45.457Z,18.81
2023-03-29T05:10:14.879Z,18.81
2023-03-29T05:12:42.715Z,18.81
2023-03-29T05:15:10.448Z,18.80
2023-03-29T05:17:38.060Z,18.81
2023-03-29T05:20:10.323Z,18.79
2023-03-29T05:22:38.495Z,18.80
2023-03-29T05:25:09.216Z,18.79
2023-03-29T05:27:37.107Z,18.79
2023-03-29T05:30:09.626Z,18.80
2023-03-29T05:32:51.093Z,18.80
2023-03-29T05:35:25.535Z,18.78
2023-03-29T05:37:54.071Z,18.78
2023-03-29T05:40:22.762Z,18.78
2023-03-29T05:43:09.166Z,18.77
2023-03-29T05:45:36.443Z,18.77
2023-03-29T05:48:04.067Z,18.77
2023-03-29T05:50:32.108Z,18.76
2023-03-29T05:53:00.585Z,18.77
2023-03-29T05:55:28.318Z,18.77
2023-03-29T05:57:55.934Z,18.77
2023-03-29T06:00:26.840Z,18.77
2023-03-29T06:03:17.648Z,18.77
2023-03-29T06:05:49.936Z,18.77
2023-03-29T06:08:17.944Z,18.76
2023-03-29T06:11:05.790Z,18.77
2023-03-29T06:14:08.155Z,18.77
2023-03-29T06:16:42.698Z,18.77
2023-03-29T06:19:11.280Z,18.77
2023-03-29T06:21:41.274Z,18.78
2023-03-29T06:24:11.248Z,18.79
2023-03-29T06:26:45.250Z,18.79
2023-03-29T06:29:13.036Z,18.80
2023-03-29T06:31:42.501Z,18.78
2023-03-29T06:34:23.110Z,18.80
2023-03-29T06:37:09.014Z,18.81
2023-03-29T06:39:36.492Z,18.82
2023-03-29T06:42:22.710Z,18.83
2023-03-29T06:45:10.892Z,18.82
2023-03-29T06:47:41.050Z,18.83
2023-03-29T06:50:09.424Z,18.83
2023-03-29T06:52:49.911Z,18.83
2023-03-29T06:55:18.626Z,18.82
2023-03-29T06:57:45.918Z,18.83
2023-03-29T07:00:27.863Z,18.83
2023-03-29T07:03:20.366Z,18.83
2023-03-29T07:05:52.106Z,18.83
2023-03-29T07:08:22.486Z,18.83
2023-03-29T07:10:59.454Z,18.82
2023-03-29T07:13:46.242Z,18.82
2023-03-29T07:16:18.068Z,18.83
2023-03-29T07:19:08.923Z,18.83
2023-03-29T07:21:59.258Z,18.83
2023-03-29T07:24:39.227Z,18.83
2023-03-29T07:27:07.364Z,18.83
2023-03-29T07:29:34.734Z,18.83
2023-03-29T07:32:04.441Z,18.83
2023-03-29T07:34:51.932Z,18.83
2023-03-29T07:37:36.506Z,18.83
2023-03-29T07:40:16.209Z,18.83
2023-03-29T07:43:11.108Z,18.84
2023-03-29T07:45:42.380Z,18.83
2023-03-29T07:48:11.854Z,18.83
2023-03-29T07:50:54.887Z,18.84
2023-03-29T07:53:29.805Z,18.85
2023-03-29T07:55:58.899Z,18.84
2023-03-29T07:58:44.586Z,18.84
2023-03-29T08:01:18.878Z,18.85
2023-03-29T08:04:14.074Z,18.86
2023-03-29T08:07:06.800Z,18.87
2023-03-29T08:10:11.613Z,18.88
2023-03-29T08:13:07.412Z,18.89
2023-03-29T08:15:53.425Z,18.90
2023-03-29T08:18:34.614Z,18.92
2023-03-29T08:21:04.308Z,18.94
2023-03-29T08:23:32.368Z,18.94
2023-03-29T08:26:16.236Z,18.96
2023-03-29T08:28:44.799Z,18.97
2023-03-29T08:31:13.113Z,18.98
2023-03-29T08:33:44.449Z,18.97
2023-03-29T08:36:30.452Z,18.99
2023-03-29T08:39:03.370Z,18.99
2023-03-29T08:41:47.384Z,19.00
2023-03-29T08:44:17.708Z,19.01
2023-03-29T08:47:03.278Z,19.02
2023-03-29T08:49:42.633Z,19.03
2023-03-29T08:52:22.008Z,19.03
2023-03-29T08:54:53.672Z,19.03
2023-03-29T08:57:48.739Z,19.06
2023-03-29T09:00:39.232Z,19.07
2023-03-29T09:03:30.699Z,19.08
2023-03-29T09:06:07.743Z,19.09
2023-03-29T09:08:38.355Z,19.09
2023-03-29T09:11:24.062Z,19.11
2023-03-29T09:14:16.505Z,19.11
2023-03-29T09:16:52.731Z,19.11
2023-03-29T09:19:31.995Z,19.12
2023-03-29T09:22:04.285Z,19.11
2023-03-29T09:24:41.072Z,19.20
2023-03-29T09:27:28.776Z,19.45
2023-03-29T09:30:25.889Z,19.51
2023-03-29T09:33:21.576Z,19.47
2023-03-29T09:36:34.127Z,19.39
2023-03-29T09:39:02.453Z,19.30
2023-03-29T09:41:40.243Z,19.24
2023-03-29T09:44:24.214Z,19.20
2023-03-29T09:47:03.558Z,19.17
2023-03-29T09:49:39.753Z,19.15
2023-03-29T09:52:14.067Z,19.14
2023-03-29T09:54:45.242Z,19.12
2023-03-29T09:57:31.135Z,19.13
2023-03-29T10:00:04.121Z,19.14
2023-03-29T10:02:41.032Z,19.13
2023-03-29T10:05:16.826Z,19.07
2023-03-29T10:07:50.462Z,18.97
2023-03-29T10:10:25.640Z,18.87
2023-03-29T10:12:56.847Z,18.80
2023-03-29T10:15:30.249Z,18.76
2023-03-29T10:18:05.670Z,18.77
2023-03-29T10:20:36.675Z,18.79
2023-03-29T10:23:06.915Z,18.81
2023-03-29T10:25:40.328Z,18.84
2023-03-29T10:28:17.613Z,18.87
2023-03-29T10:30:52.737Z,18.91
2023-03-29T10:33:24.190Z,18.92
2023-03-29T10:35:51.834Z,18.93
2023-03-29T10:38:22.821Z,18.94
2023-03-29T10:40:53.386Z,18.96
2023-03-29T10:43:29.683Z,18.96
2023-03-29T10:46:08.206Z,18.97
2023-03-29T10:48:36.147Z,18.98
2023-03-29T10:51:05.631Z,18.98
2023-03-29T10:53:35.979Z,19.00
2023-03-29T10:56:09.335Z,19.00
2023-03-29T10:59:00.480Z,19.01
2023-03-29T11:02:01.817Z,19.01
2023-03-29T11:04:59.270Z,19.00
2023-03-29T11:07:26.471Z,19.01
2023-03-29T11:10:11.652Z,19.01
2023-03-29T11:12:48.092Z,19.03
2023-03-29T11:15:37.536Z,19.02
2023-03-29T11:18:28.946Z,19.02
2023-03-29T11:21:12.617Z,19.02
2023-03-29T11:23:42.935Z,19.03
2023-03-29T11:26:16.728Z,19.03
2023-03-29T11:28:52.986Z,19.01
2023-03-29T11:31:38.568Z,19.05
2023-03-29T11:34:15.777Z,19.04
2023-03-29T11:36:52.747Z,19.06
2023-03-29T11:39:39.421Z,19.05
2023-03-29T11:42:23.456Z,19.08
2023-03-29T11:44:55.103Z,19.08
2023-03-29T11:47:27.479Z,19.08
2023-03-29T11:50:04.022Z,19.09
2023-03-29T11:52:40.125Z,19.06
2023-03-29T11:55:26.444Z,19.04
2023-03-29T11:58:10.097Z,19.01
2023-03-29T12:00:44.225Z,18.98
2023-03-29T12:03:28.514Z,18.96
2023-03-29T12:06:04.902Z,18.95
2023-03-29T12:08:54.909Z,18.94
2023-03-29T12:11:27.414Z,18.94
2023-03-29T12:13:59.773Z,18.93
2023-03-29T12:16:32.734Z,18.92
2023-03-29T12:19:06.967Z,18.91
2023-03-29T12:21:36.459Z,18.92
2023-03-29T12:24:04.936Z,18.94
2023-03-29T12:26:50.896Z,18.94
2023-03-29T12:29:27.087Z,18.94
2023-03-29T12:32:14.209Z,18.95
2023-03-29T12:35:02.560Z,18.97
2023-03-29T12:37:33.894Z,18.95
2023-03-29T12:40:22.449Z,18.96
2023-03-29T12:43:28.216Z,18.95
2023-03-29T12:46:27.526Z,18.95
2023-03-29T12:48:57.360Z,18.97
2023-03-29T12:51:33.041Z,18.95
2023-03-29T12:54:08.606Z,18.95
2023-03-29T12:56:52.052Z,18.96
2023-03-29T12:59:36.531Z,18.95
2023-03-29T13:02:32.905Z,18.94
2023-03-29T13:05:01.186Z,18.94
2023-03-29T13:07:32.385Z,18.94
2023-03-29T13:10:02.284Z,18.93
2023-03-29T13:12:35.253Z,18.94
2023-03-29T13:15:05.999Z,18.93
2023-03-29T13:17:46.679Z,18.93
2023-03-29T13:20:32.202Z,18.93
2023-03-29T13:23:21.174Z,18.93
2023-03-29T13:26:17.453Z,18.92
2023-03-29T13:28:58.601Z,18.92
2023-03-29T13:31:51.871Z,18.92
2023-03-29T13:34:22.065Z,18.92
2023-03-29T13:36:52.393Z,18.92
2023-03-29T13:39:23.691Z,18.91
2023-03-29T13:41:54.325Z,18.91
2023-03-29T13:44:51.514Z,18.92
2023-03-29T13:47:38.138Z,18.91
2023-03-29T13:50:14.455Z,18.92
2023-03-29T13:52:49.959Z,18.92
2023-03-29T13:55:25.962Z,18.91
2023-03-29T13:58:22.514Z,18.91
2023-03-29T14:00:55.454Z,18.91
2023-03-29T14:03:30.115Z,18.92
2023-03-29T14:06:00.651Z,18.90
2023-03-29T14:08:36.566Z,18.90
2023-03-29T14:11:06.817Z,18.89
2023-03-29T14:13:35.030Z,18.91
2023-03-29T14:16:06.946Z,18.89
2023-03-29T14:18:40.101Z,18.89
2023-03-29T14:21:08.358Z,18.89
2023-03-29T14:23:38.052Z,18.88
2023-03-29T14:26:14.421Z,18.89
2023-03-29T14:28:53.091Z,18.88
2023-03-29T14:31:26.246Z,18.88
2023-03-29T14:33:54.043Z,18.88
2023-03-29T14:36:22.093Z,18.89
2023-03-29T14:38:52.360Z,18.88
2023-03-29T14:41:21.985Z,18.89
2023-03-29T14:43:51.603Z,18.88
2023-03-29T14:46:21.689Z,18.88
2023-03-29T14:48:49.357Z,18.89
2023-03-29T14:51:17.188Z,18.88
2023-03-29T14:53:44.870Z,18.88
2023-03-29T14:56:15.956Z,18.88
2023-03-29T14:58:48.783Z,18.88
2023-03-29T15:01:18.624Z,18.88
2023-03-29T15:04:03.312Z,18.88
2023-03-29T15:06:32.763Z,18.89
2023-03-29T15:09:06.489Z,18.88
2023-03-29T15:11:35.958Z,18.88
2023-03-29T15:14:15.918Z,18.87
2023-03-29T15:16:47.492Z,18.88
2023-03-29T15:19:18.439Z,18.88
2023-03-29T15:21:49.167Z,18.87
2023-03-29T15:24:42.010Z,18.88
2023-03-29T15:27:18.169Z,18.87
2023-03-29T15:29:47.308Z,18.87
2023-03-29T15:32:25.663Z,18.87
2023-03-29T15:35:04.936Z,18.87
2023-03-29T15:37:32.395Z,18.86
2023-03-29T15:39:59.779Z,18.87
2023-03-29T15:42:27.058Z,18.87
2023-03-29T15:44:56.333Z,18.86
2023-03-29T15:47:24.135Z,18.87
2023-03-29T15:49:51.719Z,18.87
2023-03-29T15:52:18.993Z,18.87
2023-03-29T15:54:46.294Z,18.86
2023-03-29T15:57:15.663Z,18.86
2023-03-29T15:59:43.878Z,18.87
2023-03-29T16:02:16.543Z,18.86
2023-03-29T16:04:43.923Z,18.86
2023-03-29T16:07:16.384Z,18.86
2023-03-29T16:09:45.882Z,18.86
2023-03-29T16:12:16.136Z,18.86
2023-03-29T16:14:43.421Z,18.86
2023-03-29T16:17:10.862Z,18.85
2023-03-29T16:19:38.119Z,18.85
2023-03-29T16:22:07.227Z,18.84
2023-03-29T16:24:36.308Z,18.86
2023-03-29T16:27:04.072Z,18.85
2023-03-29T16:29:31.712Z,18.85
2023-03-29T16:31:59.224Z,18.86
2023-03-29T16:34:26.822Z,18.85
2023-03-29T16:36:54.358Z,18.84
2023-03-29T16:39:21.582Z,18.85
2023-03-29T16:41:50.075Z,18.84
2023-03-29T16:44:22.971Z,18.84
2023-03-29T16:46:53.796Z,18.85
2023-03-29T16:49:21.612Z,18.84
2023-03-29T16:51:49.170Z,18.85
2023-03-29T16:54:19.738Z,18.84
2023-03-29T16:56:47.352Z,18.84
2023-03-29T16:59:15.299Z,18.84
2023-03-29T17:01:42.799Z,18.83
2023-03-29T17:04:10.745Z,18.84
2023-03-29T17:06:38.003Z,18.84
2023-03-29T17:09:06.178Z,18.83
2023-03-29T17:11:34.491Z,18.85
2023-03-29T17:14:01.841Z,18.86
2023-03-29T17:16:29.536Z,18.86
2023-03-29T17:19:00.246Z,18.88
2023-03-29T17:21:29.199Z,18.88
2023-03-29T17:23:56.533Z,18.90
2023-03-29T17:26:23.879Z,18.88
2023-03-29T17:28:51.117Z,18.90
2023-03-29T17:31:19.475Z,18.90
2023-03-29T17:33:47.582Z,18.91
2023-03-29T17:36:15.091Z,18.91
2023-03-29T17:38:43.060Z,18.91
2023-03-29T17:41:11.137Z,18.93
2023-03-29T17:43:38.438Z,18.93
2023-03-29T17:46:06.164Z,18.94
2023-03-29T17:48:33.889Z,18.95
2023-03-29T17:51:01.276Z,18.96
2023-03-29T17:53:28.569Z,18.96
2023-03-29T17:55:55.808Z,18.96
2023-03-29T17:58:23.098Z,18.95
2023-03-29T18:00:50.545Z,18.96
2023-03-29T18:03:17.843Z,18.95
2023-03-29T18:05:45.545Z,18.96
2023-03-29T18:08:13.682Z,18.96
2023-03-29T18:10:41.215Z,18.96
2023-03-29T18:13:13.751Z,18.98
2023-03-29T18:15:41.134Z,18.98
2023-03-29T18:18:08.342Z,18.98
2023-03-29T18:20:35.642Z,18.97
2023-03-29T18:23:03.294Z,18.98
2023-03-29T18:25:30.549Z,18.98
2023-03-29T18:27:57.765Z,18.99
2023-03-29T18:30:25.077Z,18.98
2023-03-29T18:32:53.134Z,19.00
2023-03-29T18:35:20.541Z,19.02
2023-03-29T18:37:47.751Z,19.01
2023-03-29T18:40:15.669Z,19.00
2023-03-29T18:42:42.869Z,19.00
2023-03-29T18:45:10.692Z,19.00
2023-03-29T18:47:38.092Z,18.99
2023-03-29T18:50:05.941Z,18.99
2023-03-29T18:52:33.247Z,18.99
2023-03-29T18:55:00.692Z,18.98
2023-03-29T18:57:28.153Z,18.98
2023-03-29T18:59:55.498Z,18.99
2023-03-29T19:02:22.756Z,18.98
2023-03-29T19:04:50.037Z,18.98
2023-03-29T19:07:17.764Z,18.97
2023-03-29T19:09:45.461Z,18.98
2023-03-29T19:12:12.695Z,18.98
2023-03-29T19:14:40.005Z,18.99
2023-03-29T19:17:07.210Z,18.99
2023-03-29T19:19:34.443Z,18.99
2023-03-29T19:22:01.640Z,18.99
2023-03-29T19:24:28.937Z,18.99
2023-03-29T19:26:57.406Z,18.99
2023-03-29T19:29:26.150Z,18.99
2023-03-29T19:31:54.590Z,18.99
2023-03-29T19:34:23.843Z,18.99
2023-03-29T19:36:51.770Z,19.00
2023-03-29T19:39:19.066Z,19.00
2023-03-29T19:41:46.367Z,19.00
2023-03-29T19:44:13.847Z,19.01
2023-03-29T19:46:41.463Z,19.00
2023-03-29T19:49:13.529Z,19.01
2023-03-29T19:51:43.806Z,19.01
2023-03-29T19:54:13.894Z,19.02
2023-03-29T19:56:42.743Z,19.01
2023-03-29T19:59:11.241Z,19.02
2023-03-29T20:01:42.675Z,19.02
2023-03-29T20:04:10.101Z,19.02
2023-03-29T20:06:37.393Z,19.03
2023-03-29T20:09:05.331Z,19.02
2023-03-29T20:11:32.586Z,19.02
2023-03-29T20:13:59.962Z,19.03
2023-03-29T20:16:27.561Z,19.04
2023-03-29T20:18:56.225Z,19.03
2023-03-29T20:21:23.521Z,19.03
2023-03-29T20:23:50.890Z,19.03
2023-03-29T20:26:18.235Z,19.03
2023-03-29T20:28:45.791Z,19.03
2023-03-29T20:31:13.236Z,19.03
2023-03-29T20:33:41.473Z,19.03
2023-03-29T20:36:09.190Z,19.03
2023-03-29T20:38:36.942Z,19.05
2023-03-29T20:41:05.993Z,19.04
2023-03-29T20:43:40.951Z,19.05
2023-03-29T20:46:14.549Z,19.05
2023-03-29T20:48:54.438Z,19.04
2023-03-29T20:51:30.348Z,19.06
2023-03-29T20:54:03.780Z,19.05
2023-03-29T20:56:38.050Z,19.05
2023-03-29T20:59:06.458Z,19.05
2023-03-29T21:01:40.615Z,19.06
2023-03-29T21:04:09.345Z,19.07
2023-03-29T21:06:39.638Z,19.08
2023-03-29T21:09:07.025Z,19.07
2023-03-29T21:11:34.292Z,19.07
2023-03-29T21:14:02.625Z,19.07
2023-03-29T21:16:31.190Z,19.07
2023-03-29T21:18:58.658Z,19.08
2023-03-29T21:21:25.971Z,19.09
2023-03-29T21:23:53.389Z,19.08
2023-03-29T21:26:21.256Z,19.07
2023-03-29T21:28:48.778Z,19.08
2023-03-29T21:31:16.083Z,19.08
2023-03-29T21:33:43.406Z,19.07
2023-03-29T21:36:10.852Z,19.08
2023-03-29T21:38:38.100Z,19.08
2023-03-29T21:41:06.913Z,19.09
2023-03-29T21:43:34.138Z,19.09
2023-03-29T21:46:01.481Z,19.09
2023-03-29T21:48:29.052Z,19.10
2023-03-29T21:50:56.302Z,19.10
2023-03-29T21:53:24.624Z,19.11
2023-03-29T21:55:52.211Z,19.11
2023-03-29T21:58:20.190Z,19.11
2023-03-29T22:00:48.267Z,19.10
2023-03-29T22:03:16.703Z,19.11
2023-03-29T22:05:55.411Z,19.11
2023-03-29T22:08:24.342Z,19.10
2023-03-29T22:10:55.441Z,19.11
2023-03-29T22:13:28.284Z,19.12
2023-03-29T22:16:00.222Z,19.11
2023-03-29T22:18:30.215Z,19.11
2023-03-29T22:20:57.552Z,19.13
2023-03-29T22:23:24.957Z,19.12
2023-03-29T22:25:52.232Z,19.13
2023-03-29T22:28:19.523Z,19.13
2023-03-29T22:30:46.765Z,19.13
2023-03-29T22:33:14.006Z,19.12
2023-03-29T22:35:41.357Z,19.11
2023-03-29T22:38:08.722Z,19.12
2023-03-29T22:40:40.153Z,19.11
2023-03-29T22:43:07.396Z,19.10
2023-03-29T22:45:34.657Z,19.10
2023-03-29T22:48:02.154Z,19.10
2023-03-29T22:50:29.550Z,19.09
2023-03-29T22:52:57.009Z,19.10
2023-03-29T22:55:24.215Z,19.09
2023-03-29T22:57:51.471Z,19.08
2023-03-29T23:00:19.231Z,19.09
2023-03-29T23:02:46.562Z,19.08
2023-03-29T23:05:13.959Z,19.08
2023-03-29T23:07:41.487Z,19.08
2023-03-29T23:10:09.306Z,19.07
2023-03-29T23:12:36.694Z,19.08
2023-03-29T23:15:06.364Z,19.08
2023-03-29T23:17:34.941Z,19.07
2023-03-29T23:20:06.029Z,19.07
2023-03-29T23:22:34.307Z,19.06
2023-03-29T23:25:08.388Z,19.06
2023-03-29T23:27:35.805Z,19.07
2023-03-29T23:30:03.442Z,19.05
2023-03-29T23:32:30.863Z,19.05
2023-03-29T23:35:00.019Z,19.05
2023-03-29T23:37:28.021Z,19.05
2023-03-29T23:39:55.306Z,19.05
2023-03-29T23:42:22.738Z,19.05
2023-03-29T23:44:50.682Z,19.05
2023-03-29T23:47:17.953Z,19.05
2023-03-29T23:49:45.420Z,19.03
2023-03-29T23:52:13.185Z,19.04
2023-03-29T23:54:40.427Z,19.04
2023-03-29T23:57:07.826Z,19.04
2023-03-29T23:59:37.856Z,19.03
